sensor_id;sensor_type;location;lat;lon;timestamp;P1;durP1;ratioP1;P2;durP2;ratioP2
9860;SDS011;4969;52.304;4.968;2024-02-26T00:01:45;3.43;;;2.73;;
9860;SDS011;4969;52.304;4.968;2024-02-26T00:04:11;6.97;;;2.90;;
9860;SDS011;4969;52.304;4.968;2024-02-26T00:06:38;2.80;;;2.60;;
9860;SDS011;4969;52.304;4.968;2024-02-26T00:09:06;2.90;;;2.70;;
9860;SDS011;4969;52.304;4.968;2024-02-26T00:11:33;3.00;;;2.70;;
9860;SDS011;4969;52.304;4.968;2024-02-26T00:13:59;2.60;;;2.50;;
9860;SDS011;4969;52.304;4.968;2024-02-26T00:16:27;2.50;;;2.40;;
9860;SDS011;4969;52.304;4.968;2024-02-26T00:18:55;2.67;;;2.50;;
9860;SDS011;4969;52.304;4.968;2024-02-26T00:21:21;2.90;;;2.70;;
9860;SDS011;4969;52.304;4.968;2024-02-26T00:23:49;2.93;;;2.73;;
9860;SDS011;4969;52.304;4.968;2024-02-26T00:26:15;2.40;;;2.20;;
9860;SDS011;4969;52.304;4.968;2024-02-26T00:28:42;3.07;;;2.60;;
9860;SDS011;4969;52.304;4.968;2024-02-26T00:31:09;3.03;;;2.73;;
9860;SDS011;4969;52.304;4.968;2024-02-26T00:33:36;3.13;;;2.40;;
9860;SDS011;4969;52.304;4.968;2024-02-26T00:36:05;2.63;;;2.40;;
9860;SDS011;4969;52.304;4.968;2024-02-26T00:38:31;4.70;;;2.40;;
9860;SDS011;4969;52.304;4.968;2024-02-26T00:40:58;3.07;;;2.43;;
9860;SDS011;4969;52.304;4.968;2024-02-26T00:43:25;2.87;;;2.67;;
9860;SDS011;4969;52.304;4.968;2024-02-26T00:45:51;2.70;;;2.50;;
9860;SDS011;4969;52.304;4.968;2024-02-26T00:48:18;2.53;;;2.40;;
9860;SDS011;4969;52.304;4.968;2024-02-26T00:50:45;2.60;;;2.40;;
9860;SDS011;4969;52.304;4.968;2024-02-26T00:53:12;3.17;;;2.97;;
9860;SDS011;4969;52.304;4.968;2024-02-26T00:55:39;3.33;;;2.80;;
9860;SDS011;4969;52.304;4.968;2024-02-26T00:58:05;3.70;;;3.40;;
9860;SDS011;4969;52.304;4.968;2024-02-26T01:00:32;4.03;;;3.73;;
9860;SDS011;4969;52.304;4.968;2024-02-26T01:02:59;4.37;;;3.50;;
9860;SDS011;4969;52.304;4.968;2024-02-26T01:05:25;4.00;;;3.70;;
9860;SDS011;4969;52.304;4.968;2024-02-26T01:07:52;4.20;;;3.90;;
9860;SDS011;4969;52.304;4.968;2024-02-26T01:10:19;4.10;;;3.90;;
9860;SDS011;4969;52.304;4.968;2024-02-26T01:12:46;4.43;;;4.13;;
9860;SDS011;4969;52.304;4.968;2024-02-26T01:15:13;4.77;;;4.47;;
9860;SDS011;4969;52.304;4.968;2024-02-26T01:17:40;4.80;;;4.40;;
9860;SDS011;4969;52.304;4.968;2024-02-26T01:20:07;5.60;;;4.87;;
9860;SDS011;4969;52.304;4.968;2024-02-26T01:22:35;3.67;;;3.47;;
9860;SDS011;4969;52.304;4.968;2024-02-26T01:25:01;5.50;;;4.57;;
9860;SDS011;4969;52.304;4.968;2024-02-26T01:27:29;4.00;;;3.70;;
9860;SDS011;4969;52.304;4.968;2024-02-26T01:29:56;4.60;;;4.23;;
9860;SDS011;4969;52.304;4.968;2024-02-26T01:32:22;5.10;;;4.67;;
9860;SDS011;4969;52.304;4.968;2024-02-26T01:34:49;4.87;;;4.47;;
9860;SDS011;4969;52.304;4.968;2024-02-26T01:37:15;4.50;;;4.20;;
9860;SDS011;4969;52.304;4.968;2024-02-26T01:39:42;3.93;;;3.63;;
9860;SDS011;4969;52.304;4.968;2024-02-26T01:42:08;4.53;;;4.23;;
9860;SDS011;4969;52.304;4.968;2024-02-26T01:44:36;5.10;;;4.70;;
9860;SDS011;4969;52.304;4.968;2024-02-26T01:47:03;4.07;;;3.77;;
9860;SDS011;4969;52.304;4.968;2024-02-26T01:49:30;4.43;;;4.10;;
9860;SDS011;4969;52.304;4.968;2024-02-26T01:51:57;4.13;;;3.83;;
9860;SDS011;4969;52.304;4.968;2024-02-26T01:54:24;4.60;;;4.30;;
9860;SDS011;4969;52.304;4.968;2024-02-26T01:56:51;4.30;;;4.00;;
9860;SDS011;4969;52.304;4.968;2024-02-26T01:59:18;4.63;;;4.33;;
9860;SDS011;4969;52.304;4.968;2024-02-26T02:01:48;4.93;;;3.63;;
9860;SDS011;4969;52.304;4.968;2024-02-26T02:04:16;4.60;;;4.23;;
9860;SDS011;4969;52.304;4.968;2024-02-26T02:06:43;4.57;;;4.33;;
9860;SDS011;4969;52.304;4.968;2024-02-26T02:09:11;4.60;;;4.30;;
9860;SDS011;4969;52.304;4.968;2024-02-26T02:11:38;3.87;;;3.57;;
9860;SDS011;4969;52.304;4.968;2024-02-26T02:14:04;4.67;;;4.30;;
9860;SDS011;4969;52.304;4.968;2024-02-26T02:16:32;5.20;;;4.80;;
9860;SDS011;4969;52.304;4.968;2024-02-26T02:19:00;5.13;;;4.77;;
9860;SDS011;4969;52.304;4.968;2024-02-26T02:21:28;5.43;;;4.93;;
9860;SDS011;4969;52.304;4.968;2024-02-26T02:23:54;6.37;;;5.00;;
9860;SDS011;4969;52.304;4.968;2024-02-26T02:26:21;5.67;;;5.20;;
9860;SDS011;4969;52.304;4.968;2024-02-26T02:28:48;5.40;;;5.10;;
9860;SDS011;4969;52.304;4.968;2024-02-26T02:31:15;6.13;;;5.73;;
9860;SDS011;4969;52.304;4.968;2024-02-26T02:33:42;6.13;;;5.73;;
9860;SDS011;4969;52.304;4.968;2024-02-26T02:36:09;6.37;;;5.83;;
9860;SDS011;4969;52.304;4.968;2024-02-26T02:38:37;7.40;;;6.73;;
9860;SDS011;4969;52.304;4.968;2024-02-26T02:41:04;6.53;;;6.13;;
9860;SDS011;4969;52.304;4.968;2024-02-26T02:43:31;6.80;;;6.10;;
9860;SDS011;4969;52.304;4.968;2024-02-26T02:45:57;7.27;;;6.80;;
9860;SDS011;4969;52.304;4.968;2024-02-26T02:48:24;7.20;;;6.70;;
9860;SDS011;4969;52.304;4.968;2024-02-26T02:50:51;7.00;;;6.50;;
9860;SDS011;4969;52.304;4.968;2024-02-26T02:53:17;7.30;;;6.80;;
9860;SDS011;4969;52.304;4.968;2024-02-26T02:55:45;5.73;;;5.33;;
9860;SDS011;4969;52.304;4.968;2024-02-26T02:58:12;6.80;;;6.30;;
9860;SDS011;4969;52.304;4.968;2024-02-26T03:00:38;7.43;;;6.93;;
9860;SDS011;4969;52.304;4.968;2024-02-26T03:03:05;7.40;;;6.90;;
9860;SDS011;4969;52.304;4.968;2024-02-26T03:05:31;7.50;;;6.90;;
9860;SDS011;4969;52.304;4.968;2024-02-26T03:07:58;6.70;;;6.20;;
9860;SDS011;4969;52.304;4.968;2024-02-26T03:10:24;5.90;;;5.40;;
9860;SDS011;4969;52.304;4.968;2024-02-26T03:12:53;6.80;;;6.30;;
9860;SDS011;4969;52.304;4.968;2024-02-26T03:15:21;7.97;;;6.10;;
9860;SDS011;4969;52.304;4.968;2024-02-26T03:17:47;6.97;;;6.37;;
9860;SDS011;4969;52.304;4.968;2024-02-26T03:20:14;6.77;;;6.27;;
9860;SDS011;4969;52.304;4.968;2024-02-26T03:22:43;6.77;;;6.37;;
9860;SDS011;4969;52.304;4.968;2024-02-26T03:25:10;7.00;;;6.40;;
9860;SDS011;4969;52.304;4.968;2024-02-26T03:27:37;7.00;;;6.50;;
9860;SDS011;4969;52.304;4.968;2024-02-26T03:30:05;7.80;;;7.20;;
9860;SDS011;4969;52.304;4.968;2024-02-26T03:32:33;8.20;;;7.60;;
9860;SDS011;4969;52.304;4.968;2024-02-26T03:34:59;7.50;;;6.97;;
9860;SDS011;4969;52.304;4.968;2024-02-26T03:37:26;7.10;;;6.60;;
9860;SDS011;4969;52.304;4.968;2024-02-26T03:39:52;7.50;;;6.90;;
9860;SDS011;4969;52.304;4.968;2024-02-26T03:42:19;7.90;;;7.30;;
9860;SDS011;4969;52.304;4.968;2024-02-26T03:44:46;6.90;;;6.23;;
9860;SDS011;4969;52.304;4.968;2024-02-26T03:47:14;7.03;;;6.43;;
9860;SDS011;4969;52.304;4.968;2024-02-26T03:49:40;8.53;;;7.73;;
9860;SDS011;4969;52.304;4.968;2024-02-26T03:52:07;7.60;;;7.00;;
9860;SDS011;4969;52.304;4.968;2024-02-26T03:54:33;7.33;;;6.73;;
9860;SDS011;4969;52.304;4.968;2024-02-26T03:57:00;8.00;;;7.40;;
9860;SDS011;4969;52.304;4.968;2024-02-26T03:59:26;8.33;;;7.40;;
9860;SDS011;4969;52.304;4.968;2024-02-26T04:01:53;8.57;;;7.83;;
9860;SDS011;4969;52.304;4.968;2024-02-26T04:04:21;8.47;;;7.77;;
9860;SDS011;4969;52.304;4.968;2024-02-26T04:06:47;8.87;;;8.20;;
9860;SDS011;4969;52.304;4.968;2024-02-26T04:09:14;9.70;;;8.87;;
9860;SDS011;4969;52.304;4.968;2024-02-26T04:11:41;9.20;;;8.40;;
9860;SDS011;4969;52.304;4.968;2024-02-26T04:14:09;8.67;;;7.97;;
9860;SDS011;4969;52.304;4.968;2024-02-26T04:16:37;9.87;;;8.97;;
9860;SDS011;4969;52.304;4.968;2024-02-26T04:19:04;8.57;;;7.80;;
9860;SDS011;4969;52.304;4.968;2024-02-26T04:21:33;7.97;;;7.37;;
9860;SDS011;4969;52.304;4.968;2024-02-26T04:23:59;8.70;;;7.90;;
9860;SDS011;4969;52.304;4.968;2024-02-26T04:26:27;8.67;;;7.97;;
9860;SDS011;4969;52.304;4.968;2024-02-26T04:28:54;7.53;;;6.87;;
9860;SDS011;4969;52.304;4.968;2024-02-26T04:31:20;7.90;;;7.30;;
9860;SDS011;4969;52.304;4.968;2024-02-26T04:33:47;9.53;;;8.73;;
9860;SDS011;4969;52.304;4.968;2024-02-26T04:36:14;8.93;;;8.13;;
9860;SDS011;4969;52.304;4.968;2024-02-26T04:38:42;9.00;;;8.30;;
9860;SDS011;4969;52.304;4.968;2024-02-26T04:41:09;8.23;;;7.63;;
9860;SDS011;4969;52.304;4.968;2024-02-26T04:43:35;9.97;;;9.17;;
9860;SDS011;4969;52.304;4.968;2024-02-26T04:46:06;9.77;;;8.97;;
9860;SDS011;4969;52.304;4.968;2024-02-26T04:48:33;8.73;;;7.93;;
9860;SDS011;4969;52.304;4.968;2024-02-26T04:50:59;8.13;;;7.43;;
9860;SDS011;4969;52.304;4.968;2024-02-26T04:53:26;9.40;;;8.50;;
9860;SDS011;4969;52.304;4.968;2024-02-26T04:55:54;8.87;;;8.07;;
9860;SDS011;4969;52.304;4.968;2024-02-26T04:58:21;10.60;;;8.77;;
9860;SDS011;4969;52.304;4.968;2024-02-26T05:00:47;9.03;;;8.13;;
9860;SDS011;4969;52.304;4.968;2024-02-26T05:03:14;7.83;;;7.13;;
9860;SDS011;4969;52.304;4.968;2024-02-26T05:05:41;8.33;;;7.53;;
9860;SDS011;4969;52.304;4.968;2024-02-26T05:08:07;8.80;;;8.07;;
9860;SDS011;4969;52.304;4.968;2024-02-26T05:10:34;10.20;;;9.27;;
9860;SDS011;4969;52.304;4.968;2024-02-26T05:13:05;10.20;;;9.30;;
9860;SDS011;4969;52.304;4.968;2024-02-26T05:15:32;9.03;;;8.23;;
9860;SDS011;4969;52.304;4.968;2024-02-26T05:17:58;10.37;;;9.47;;
9860;SDS011;4969;52.304;4.968;2024-02-26T05:20:25;11.70;;;10.60;;
9860;SDS011;4969;52.304;4.968;2024-02-26T05:22:52;11.40;;;10.40;;
9860;SDS011;4969;52.304;4.968;2024-02-26T05:25:18;11.27;;;10.27;;
9860;SDS011;4969;52.304;4.968;2024-02-26T05:27:45;12.37;;;11.27;;
9860;SDS011;4969;52.304;4.968;2024-02-26T05:30:13;13.00;;;11.80;;
9860;SDS011;4969;52.304;4.968;2024-02-26T05:32:40;11.53;;;10.37;;
9860;SDS011;4969;52.304;4.968;2024-02-26T05:35:07;13.33;;;12.13;;
9860;SDS011;4969;52.304;4.968;2024-02-26T05:37:33;14.10;;;12.87;;
9860;SDS011;4969;52.304;4.968;2024-02-26T05:40:00;11.57;;;10.50;;
9860;SDS011;4969;52.304;4.968;2024-02-26T05:42:29;14.73;;;13.53;;
9860;SDS011;4969;52.304;4.968;2024-02-26T05:44:56;13.87;;;12.50;;
9860;SDS011;4969;52.304;4.968;2024-02-26T05:47:24;12.63;;;11.53;;
9860;SDS011;4969;52.304;4.968;2024-02-26T05:49:50;14.93;;;13.70;;
9860;SDS011;4969;52.304;4.968;2024-02-26T05:52:17;12.37;;;11.20;;
9860;SDS011;4969;52.304;4.968;2024-02-26T05:54:43;14.70;;;13.40;;
9860;SDS011;4969;52.304;4.968;2024-02-26T05:57:10;14.97;;;13.57;;
9860;SDS011;4969;52.304;4.968;2024-02-26T05:59:36;15.00;;;13.53;;
9860;SDS011;4969;52.304;4.968;2024-02-26T06:02:03;15.80;;;14.50;;
9860;SDS011;4969;52.304;4.968;2024-02-26T06:04:32;13.20;;;11.90;;
9860;SDS011;4969;52.304;4.968;2024-02-26T06:06:58;15.37;;;14.13;;
9860;SDS011;4969;52.304;4.968;2024-02-26T06:09:25;14.37;;;13.17;;
9860;SDS011;4969;52.304;4.968;2024-02-26T06:11:51;15.07;;;13.77;;
9860;SDS011;4969;52.304;4.968;2024-02-26T06:14:18;15.07;;;13.67;;
9860;SDS011;4969;52.304;4.968;2024-02-26T06:16:45;14.37;;;13.17;;
9860;SDS011;4969;52.304;4.968;2024-02-26T06:19:12;14.83;;;13.43;;
9860;SDS011;4969;52.304;4.968;2024-02-26T06:21:39;14.40;;;13.10;;
9860;SDS011;4969;52.304;4.968;2024-02-26T06:24:06;15.20;;;13.90;;
9860;SDS011;4969;52.304;4.968;2024-02-26T06:26:33;11.87;;;10.77;;
9860;SDS011;4969;52.304;4.968;2024-02-26T06:28:59;12.47;;;11.27;;
9860;SDS011;4969;52.304;4.968;2024-02-26T06:31:26;12.60;;;11.50;;
9860;SDS011;4969;52.304;4.968;2024-02-26T06:33:52;10.17;;;9.27;;
9860;SDS011;4969;52.304;4.968;2024-02-26T06:36:19;12.17;;;11.07;;
9860;SDS011;4969;52.304;4.968;2024-02-26T06:38:47;12.57;;;11.50;;
9860;SDS011;4969;52.304;4.968;2024-02-26T06:41:14;12.57;;;11.43;;
9860;SDS011;4969;52.304;4.968;2024-02-26T06:43:40;12.90;;;11.80;;
9860;SDS011;4969;52.304;4.968;2024-02-26T06:46:07;10.10;;;9.20;;
9860;SDS011;4969;52.304;4.968;2024-02-26T06:48:33;10.87;;;9.97;;
9860;SDS011;4969;52.304;4.968;2024-02-26T06:51:01;11.13;;;10.20;;
9860;SDS011;4969;52.304;4.968;2024-02-26T06:53:28;11.17;;;10.23;;
9860;SDS011;4969;52.304;4.968;2024-02-26T06:55:56;7.70;;;7.03;;
9860;SDS011;4969;52.304;4.968;2024-02-26T06:58:23;9.13;;;8.43;;
9860;SDS011;4969;52.304;4.968;2024-02-26T07:00:49;9.00;;;8.30;;
9860;SDS011;4969;52.304;4.968;2024-02-26T07:03:16;8.13;;;7.43;;
9860;SDS011;4969;52.304;4.968;2024-02-26T07:05:42;8.47;;;7.87;;
9860;SDS011;4969;52.304;4.968;2024-02-26T07:08:10;8.43;;;7.83;;
9860;SDS011;4969;52.304;4.968;2024-02-26T07:10:36;8.43;;;7.77;;
9860;SDS011;4969;52.304;4.968;2024-02-26T07:13:04;8.87;;;8.17;;
9860;SDS011;4969;52.304;4.968;2024-02-26T07:15:31;8.40;;;7.70;;
9860;SDS011;4969;52.304;4.968;2024-02-26T07:17:58;7.17;;;6.53;;
9860;SDS011;4969;52.304;4.968;2024-02-26T07:20:28;6.87;;;6.27;;
9860;SDS011;4969;52.304;4.968;2024-02-26T07:22:54;7.50;;;6.90;;
9860;SDS011;4969;52.304;4.968;2024-02-26T07:25:21;6.77;;;6.23;;
9860;SDS011;4969;52.304;4.968;2024-02-26T07:27:49;7.00;;;6.40;;
9860;SDS011;4969;52.304;4.968;2024-02-26T07:30:17;7.63;;;6.93;;
9860;SDS011;4969;52.304;4.968;2024-02-26T07:32:43;6.83;;;6.40;;
9860;SDS011;4969;52.304;4.968;2024-02-26T07:35:10;6.57;;;6.07;;
9860;SDS011;4969;52.304;4.968;2024-02-26T07:37:37;6.57;;;6.03;;
9860;SDS011;4969;52.304;4.968;2024-02-26T07:40:04;6.57;;;5.90;;
9860;SDS011;4969;52.304;4.968;2024-02-26T07:42:33;5.90;;;5.40;;
9860;SDS011;4969;52.304;4.968;2024-02-26T07:44:59;4.43;;;4.07;;
9860;SDS011;4969;52.304;4.968;2024-02-26T07:47:27;5.33;;;4.93;;
9860;SDS011;4969;52.304;4.968;2024-02-26T07:49:54;5.40;;;5.07;;
9860;SDS011;4969;52.304;4.968;2024-02-26T07:52:21;5.40;;;5.00;;
9860;SDS011;4969;52.304;4.968;2024-02-26T07:54:47;5.17;;;4.80;;
9860;SDS011;4969;52.304;4.968;2024-02-26T07:57:14;5.03;;;4.63;;
9860;SDS011;4969;52.304;4.968;2024-02-26T07:59:42;4.93;;;4.53;;
9860;SDS011;4969;52.304;4.968;2024-02-26T08:02:09;5.37;;;4.87;;
9860;SDS011;4969;52.304;4.968;2024-02-26T08:04:37;4.67;;;4.37;;
9860;SDS011;4969;52.304;4.968;2024-02-26T08:07:04;4.40;;;4.10;;
9860;SDS011;4969;52.304;4.968;2024-02-26T08:09:31;4.27;;;3.87;;
9860;SDS011;4969;52.304;4.968;2024-02-26T08:11:58;4.67;;;4.37;;
9860;SDS011;4969;52.304;4.968;2024-02-26T08:14:25;4.93;;;4.60;;
9860;SDS011;4969;52.304;4.968;2024-02-26T08:16:51;4.17;;;3.87;;
9860;SDS011;4969;52.304;4.968;2024-02-26T08:19:18;4.67;;;4.23;;
9860;SDS011;4969;52.304;4.968;2024-02-26T08:21:46;3.80;;;3.50;;
9860;SDS011;4969;52.304;4.968;2024-02-26T08:24:12;4.07;;;3.80;;
9860;SDS011;4969;52.304;4.968;2024-02-26T08:26:39;4.57;;;4.27;;
9860;SDS011;4969;52.304;4.968;2024-02-26T08:29:05;4.33;;;4.00;;
9860;SDS011;4969;52.304;4.968;2024-02-26T08:31:32;4.60;;;4.30;;
9860;SDS011;4969;52.304;4.968;2024-02-26T08:34:00;4.03;;;3.73;;
9860;SDS011;4969;52.304;4.968;2024-02-26T08:36:27;3.60;;;3.30;;
9860;SDS011;4969;52.304;4.968;2024-02-26T08:38:55;3.70;;;3.40;;
9860;SDS011;4969;52.304;4.968;2024-02-26T08:41:22;3.80;;;3.50;;
9860;SDS011;4969;52.304;4.968;2024-02-26T08:43:48;3.53;;;3.33;;
9860;SDS011;4969;52.304;4.968;2024-02-26T08:46:15;3.73;;;3.43;;
9860;SDS011;4969;52.304;4.968;2024-02-26T08:48:42;4.10;;;3.80;;
9860;SDS011;4969;52.304;4.968;2024-02-26T08:51:08;3.90;;;3.60;;
9860;SDS011;4969;52.304;4.968;2024-02-26T08:53:35;4.20;;;3.80;;
9860;SDS011;4969;52.304;4.968;2024-02-26T08:56:04;3.97;;;3.57;;
9860;SDS011;4969;52.304;4.968;2024-02-26T08:58:31;3.87;;;3.33;;
9860;SDS011;4969;52.304;4.968;2024-02-26T09:00:57;3.47;;;3.27;;
9860;SDS011;4969;52.304;4.968;2024-02-26T09:03:23;3.50;;;3.30;;
9860;SDS011;4969;52.304;4.968;2024-02-26T09:05:51;4.17;;;3.87;;
9860;SDS011;4969;52.304;4.968;2024-02-26T09:08:17;4.43;;;3.63;;
9860;SDS011;4969;52.304;4.968;2024-02-26T09:10:44;3.60;;;3.30;;
9860;SDS011;4969;52.304;4.968;2024-02-26T09:13:12;3.30;;;3.10;;
9860;SDS011;4969;52.304;4.968;2024-02-26T09:15:39;3.80;;;3.50;;
9860;SDS011;4969;52.304;4.968;2024-02-26T09:18:05;4.50;;;3.40;;
9860;SDS011;4969;52.304;4.968;2024-02-26T09:20:32;4.20;;;3.57;;
9860;SDS011;4969;52.304;4.968;2024-02-26T09:22:59;4.37;;;4.07;;
9860;SDS011;4969;52.304;4.968;2024-02-26T09:25:25;3.97;;;3.67;;
9860;SDS011;4969;52.304;4.968;2024-02-26T09:27:52;3.33;;;3.13;;
9860;SDS011;4969;52.304;4.968;2024-02-26T09:30:20;3.90;;;3.50;;
9860;SDS011;4969;52.304;4.968;2024-02-26T09:32:47;3.60;;;3.30;;
9860;SDS011;4969;52.304;4.968;2024-02-26T09:35:14;3.50;;;3.30;;
9860;SDS011;4969;52.304;4.968;2024-02-26T09:37:40;4.07;;;3.77;;
9860;SDS011;4969;52.304;4.968;2024-02-26T09:40:09;3.50;;;3.30;;
9860;SDS011;4969;52.304;4.968;2024-02-26T09:42:37;3.93;;;3.63;;
9860;SDS011;4969;52.304;4.968;2024-02-26T09:45:09;4.10;;;3.80;;
9860;SDS011;4969;52.304;4.968;2024-02-26T09:47:39;3.70;;;3.40;;
9860;SDS011;4969;52.304;4.968;2024-02-26T09:50:07;4.10;;;3.80;;
9860;SDS011;4969;52.304;4.968;2024-02-26T09:52:37;4.40;;;4.00;;
9860;SDS011;4969;52.304;4.968;2024-02-26T09:55:04;4.70;;;4.10;;
9860;SDS011;4969;52.304;4.968;2024-02-26T09:57:33;3.90;;;3.60;;
9860;SDS011;4969;52.304;4.968;2024-02-26T10:00:01;4.43;;;4.13;;
9860;SDS011;4969;52.304;4.968;2024-02-26T10:02:30;4.10;;;3.80;;
9860;SDS011;4969;52.304;4.968;2024-02-26T10:05:00;4.10;;;3.80;;
9860;SDS011;4969;52.304;4.968;2024-02-26T10:07:30;3.97;;;3.67;;
9860;SDS011;4969;52.304;4.968;2024-02-26T10:09:57;4.50;;;4.10;;
9860;SDS011;4969;52.304;4.968;2024-02-26T10:12:23;3.90;;;3.60;;
9860;SDS011;4969;52.304;4.968;2024-02-26T10:14:52;3.70;;;3.50;;
9860;SDS011;4969;52.304;4.968;2024-02-26T10:17:19;3.43;;;3.23;;
9860;SDS011;4969;52.304;4.968;2024-02-26T10:19:46;3.73;;;3.43;;
9860;SDS011;4969;52.304;4.968;2024-02-26T10:22:14;3.90;;;3.60;;
9860;SDS011;4969;52.304;4.968;2024-02-26T10:24:40;3.60;;;3.30;;
9860;SDS011;4969;52.304;4.968;2024-02-26T10:27:07;3.50;;;3.20;;
9860;SDS011;4969;52.304;4.968;2024-02-26T10:29:34;3.73;;;3.53;;
9860;SDS011;4969;52.304;4.968;2024-02-26T10:32:01;3.80;;;3.40;;
9860;SDS011;4969;52.304;4.968;2024-02-26T10:34:28;3.50;;;3.20;;
9860;SDS011;4969;52.304;4.968;2024-02-26T10:36:54;3.87;;;3.60;;
9860;SDS011;4969;52.304;4.968;2024-02-26T10:39:22;3.60;;;3.30;;
9860;SDS011;4969;52.304;4.968;2024-02-26T10:41:49;3.50;;;3.20;;
9860;SDS011;4969;52.304;4.968;2024-02-26T10:44:16;3.83;;;3.63;;
9860;SDS011;4969;52.304;4.968;2024-02-26T10:46:42;3.87;;;3.60;;
9860;SDS011;4969;52.304;4.968;2024-02-26T10:49:13;3.37;;;3.17;;
9860;SDS011;4969;52.304;4.968;2024-02-26T10:51:40;3.53;;;3.17;;
9860;SDS011;4969;52.304;4.968;2024-02-26T10:54:10;2.73;;;2.53;;
9860;SDS011;4969;52.304;4.968;2024-02-26T10:56:42;3.60;;;3.30;;
9860;SDS011;4969;52.304;4.968;2024-02-26T10:59:12;3.87;;;3.57;;
9860;SDS011;4969;52.304;4.968;2024-02-26T11:01:38;3.30;;;3.10;;
9860;SDS011;4969;52.304;4.968;2024-02-26T11:04:06;3.30;;;3.10;;
9860;SDS011;4969;52.304;4.968;2024-02-26T11:06:34;3.00;;;2.80;;
9860;SDS011;4969;52.304;4.968;2024-02-26T11:09:01;3.30;;;3.00;;
9860;SDS011;4969;52.304;4.968;2024-02-26T11:11:29;3.10;;;2.90;;
9860;SDS011;4969;52.304;4.968;2024-02-26T11:13:57;2.73;;;2.53;;
9860;SDS011;4969;52.304;4.968;2024-02-26T11:16:27;3.00;;;2.50;;
9860;SDS011;4969;52.304;4.968;2024-02-26T11:18:54;3.00;;;2.40;;
9860;SDS011;4969;52.304;4.968;2024-02-26T11:21:23;2.63;;;2.40;;
9860;SDS011;4969;52.304;4.968;2024-02-26T11:23:55;2.60;;;2.50;;
9860;SDS011;4969;52.304;4.968;2024-02-26T11:26:22;2.47;;;2.37;;
9860;SDS011;4969;52.304;4.968;2024-02-26T11:28:50;2.23;;;2.13;;
9860;SDS011;4969;52.304;4.968;2024-02-26T11:31:19;2.77;;;2.37;;
9860;SDS011;4969;52.304;4.968;2024-02-26T11:33:52;2.00;;;1.90;;
9860;SDS011;4969;52.304;4.968;2024-02-26T11:36:19;1.97;;;1.87;;
9860;SDS011;4969;52.304;4.968;2024-02-26T11:38:46;2.20;;;2.10;;
9860;SDS011;4969;52.304;4.968;2024-02-26T11:41:16;1.50;;;1.40;;
9860;SDS011;4969;52.304;4.968;2024-02-26T11:43:49;3.43;;;2.23;;
9860;SDS011;4969;52.304;4.968;2024-02-26T11:46:27;1.90;;;1.80;;
9860;SDS011;4969;52.304;4.968;2024-02-26T11:48:58;1.80;;;1.70;;
9860;SDS011;4969;52.304;4.968;2024-02-26T11:51:26;1.90;;;1.80;;
9860;SDS011;4969;52.304;4.968;2024-02-26T11:53:53;1.93;;;1.80;;
9860;SDS011;4969;52.304;4.968;2024-02-26T11:56:22;1.90;;;1.80;;
9860;SDS011;4969;52.304;4.968;2024-02-26T11:58:53;4.30;;;1.60;;
9860;SDS011;4969;52.304;4.968;2024-02-26T12:01:40;1.47;;;1.37;;
9860;SDS011;4969;52.304;4.968;2024-02-26T12:04:11;1.57;;;1.47;;
9860;SDS011;4969;52.304;4.968;2024-02-26T12:06:41;2.00;;;1.77;;
9860;SDS011;4969;52.304;4.968;2024-02-26T12:09:07;2.57;;;2.00;;
9860;SDS011;4969;52.304;4.968;2024-02-26T12:11:36;1.40;;;1.30;;
9860;SDS011;4969;52.304;4.968;2024-02-26T12:14:05;1.70;;;1.60;;
9860;SDS011;4969;52.304;4.968;2024-02-26T12:16:36;1.53;;;1.43;;
9860;SDS011;4969;52.304;4.968;2024-02-26T12:19:08;2.50;;;1.57;;
9860;SDS011;4969;52.304;4.968;2024-02-26T12:21:35;2.33;;;1.50;;
9860;SDS011;4969;52.304;4.968;2024-02-26T12:24:09;2.00;;;1.80;;
9860;SDS011;4969;52.304;4.968;2024-02-26T12:26:38;2.33;;;1.60;;
9860;SDS011;4969;52.304;4.968;2024-02-26T12:29:05;1.70;;;1.60;;
9860;SDS011;4969;52.304;4.968;2024-02-26T12:31:32;2.10;;;2.00;;
9860;SDS011;4969;52.304;4.968;2024-02-26T12:34:02;1.97;;;1.80;;
9860;SDS011;4969;52.304;4.968;2024-02-26T12:36:30;1.97;;;1.70;;
9860;SDS011;4969;52.304;4.968;2024-02-26T12:38:57;2.63;;;1.80;;
9860;SDS011;4969;52.304;4.968;2024-02-26T12:41:25;1.77;;;1.67;;
9860;SDS011;4969;52.304;4.968;2024-02-26T12:43:53;1.90;;;1.80;;
9860;SDS011;4969;52.304;4.968;2024-02-26T12:46:19;2.10;;;1.90;;
9860;SDS011;4969;52.304;4.968;2024-02-26T12:48:46;3.70;;;2.03;;
9860;SDS011;4969;52.304;4.968;2024-02-26T12:51:13;1.43;;;1.33;;
9860;SDS011;4969;52.304;4.968;2024-02-26T12:53:43;3.10;;;1.83;;
9860;SDS011;4969;52.304;4.968;2024-02-26T12:56:10;2.67;;;2.00;;
9860;SDS011;4969;52.304;4.968;2024-02-26T12:58:38;6.70;;;2.03;;
9860;SDS011;4969;52.304;4.968;2024-02-26T13:01:06;1.70;;;1.60;;
9860;SDS011;4969;52.304;4.968;2024-02-26T13:03:34;1.80;;;1.70;;
9860;SDS011;4969;52.304;4.968;2024-02-26T13:06:02;2.33;;;2.13;;
9860;SDS011;4969;52.304;4.968;2024-02-26T13:08:29;1.90;;;1.80;;
9860;SDS011;4969;52.304;4.968;2024-02-26T13:10:59;6.13;;;3.10;;
9860;SDS011;4969;52.304;4.968;2024-02-26T13:13:26;2.87;;;2.37;;
9860;SDS011;4969;52.304;4.968;2024-02-26T13:16:01;3.43;;;2.20;;
9860;SDS011;4969;52.304;4.968;2024-02-26T13:18:28;2.30;;;2.10;;
9860;SDS011;4969;52.304;4.968;2024-02-26T13:21:05;5.90;;;2.50;;
9860;SDS011;4969;52.304;4.968;2024-02-26T13:23:33;2.00;;;1.80;;
9860;SDS011;4969;52.304;4.968;2024-02-26T13:26:01;2.70;;;1.70;;
9860;SDS011;4969;52.304;4.968;2024-02-26T13:28:28;2.53;;;1.70;;
9860;SDS011;4969;52.304;4.968;2024-02-26T13:30:55;2.33;;;2.13;;
9860;SDS011;4969;52.304;4.968;2024-02-26T13:33:22;3.23;;;2.20;;
9860;SDS011;4969;52.304;4.968;2024-02-26T13:35:49;2.70;;;1.97;;
9860;SDS011;4969;52.304;4.968;2024-02-26T13:38:16;2.33;;;1.57;;
9860;SDS011;4969;52.304;4.968;2024-02-26T13:40:42;2.00;;;1.63;;
9860;SDS011;4969;52.304;4.968;2024-02-26T13:43:10;2.13;;;1.90;;
9860;SDS011;4969;52.304;4.968;2024-02-26T13:45:38;1.70;;;1.60;;
9860;SDS011;4969;52.304;4.968;2024-02-26T13:48:05;2.07;;;1.93;;
9860;SDS011;4969;52.304;4.968;2024-02-26T13:50:35;2.07;;;1.87;;
9860;SDS011;4969;52.304;4.968;2024-02-26T13:53:01;2.23;;;2.10;;
9860;SDS011;4969;52.304;4.968;2024-02-26T13:55:29;3.60;;;2.40;;
9860;SDS011;4969;52.304;4.968;2024-02-26T13:57:57;3.37;;;2.27;;
9860;SDS011;4969;52.304;4.968;2024-02-26T14:00:26;3.20;;;2.20;;
9860;SDS011;4969;52.304;4.968;2024-02-26T14:02:53;2.40;;;2.20;;
9860;SDS011;4969;52.304;4.968;2024-02-26T14:05:19;2.67;;;2.47;;
9860;SDS011;4969;52.304;4.968;2024-02-26T14:07:46;2.53;;;2.40;;
9860;SDS011;4969;52.304;4.968;2024-02-26T14:10:13;2.73;;;2.53;;
9860;SDS011;4969;52.304;4.968;2024-02-26T14:12:41;2.83;;;2.60;;
9860;SDS011;4969;52.304;4.968;2024-02-26T14:15:07;2.90;;;2.70;;
9860;SDS011;4969;52.304;4.968;2024-02-26T14:17:37;4.50;;;3.00;;
9860;SDS011;4969;52.304;4.968;2024-02-26T14:20:08;3.43;;;2.83;;
9860;SDS011;4969;52.304;4.968;2024-02-26T14:22:35;3.13;;;2.83;;
9860;SDS011;4969;52.304;4.968;2024-02-26T14:25:02;2.97;;;2.77;;
9860;SDS011;4969;52.304;4.968;2024-02-26T14:27:29;4.73;;;2.80;;
9860;SDS011;4969;52.304;4.968;2024-02-26T14:29:56;2.93;;;2.50;;
9860;SDS011;4969;52.304;4.968;2024-02-26T14:32:22;3.10;;;2.37;;
9860;SDS011;4969;52.304;4.968;2024-02-26T14:34:50;4.30;;;3.03;;
9860;SDS011;4969;52.304;4.968;2024-02-26T14:37:16;3.60;;;2.70;;
9860;SDS011;4969;52.304;4.968;2024-02-26T14:39:43;2.80;;;2.60;;
9860;SDS011;4969;52.304;4.968;2024-02-26T14:42:10;3.30;;;3.00;;
9860;SDS011;4969;52.304;4.968;2024-02-26T14:44:37;3.77;;;3.23;;
9860;SDS011;4969;52.304;4.968;2024-02-26T14:47:04;3.83;;;2.80;;
9860;SDS011;4969;52.304;4.968;2024-02-26T14:49:30;3.23;;;2.93;;
9860;SDS011;4969;52.304;4.968;2024-02-26T14:51:58;4.70;;;3.10;;
9860;SDS011;4969;52.304;4.968;2024-02-26T14:54:25;2.57;;;2.37;;
9860;SDS011;4969;52.304;4.968;2024-02-26T14:56:51;3.90;;;3.10;;
9860;SDS011;4969;52.304;4.968;2024-02-26T14:59:18;4.57;;;3.70;;
9860;SDS011;4969;52.304;4.968;2024-02-26T15:01:44;4.40;;;3.00;;
9860;SDS011;4969;52.304;4.968;2024-02-26T15:04:11;3.73;;;3.43;;
9860;SDS011;4969;52.304;4.968;2024-02-26T15:06:40;3.07;;;2.77;;
9860;SDS011;4969;52.304;4.968;2024-02-26T15:09:08;4.17;;;3.40;;
9860;SDS011;4969;52.304;4.968;2024-02-26T15:11:37;5.47;;;3.80;;
9860;SDS011;4969;52.304;4.968;2024-02-26T15:14:04;4.60;;;3.63;;